createdAt,value
2023-05-03T00:02:27.092Z,99.90
2023-05-03T00:04:54.627Z,99.90
2023-05-03T00:07:22.049Z,99.90
2023-05-03T00:09:49.614Z,99.90
2023-05-03T00:12:17.140Z,99.90
2023-05-03T00:14:44.667Z,99.90
2023-05-03T00:17:12.346Z,99.90
2023-05-03T00:19:40.520Z,99.90
2023-05-03T00:22:08.905Z,99.90
2023-05-03T00:24:36.391Z,99.90
2023-05-03T00:27:03.914Z,99.90
2023-05-03T00:29:33.361Z,99.90
2023-05-03T00:32:00.846Z,99.90
2023-05-03T00:34:28.384Z,99.90
2023-05-03T00:36:55.919Z,99.90
2023-05-03T00:39:23.803Z,99.90
2023-05-03T00:41:51.326Z,99.90
2023-05-03T00:44:19.630Z,99.90
2023-05-03T00:46:47.237Z,99.90
2023-05-03T00:49:14.727Z,99.90
2023-05-03T00:51:42.287Z,99.90
2023-05-03T00:54:10.609Z,99.90
2023-05-03T00:56:48.395Z,99.90
2023-05-03T00:59:05.698Z,99.90
2023-05-03T01:01:33.661Z,99.90
2023-05-03T01:04:02.107Z,99.90
2023-05-03T01:06:38.608Z,99.90
2023-05-03T01:09:06.063Z,99.90
2023-05-03T01:11:40.337Z,99.90
2023-05-03T01:14:30.469Z,99.90
2023-05-03T01:16:58.013Z,99.90
2023-05-03T01:19:34.547Z,99.90
2023-05-03T01:22:11.009Z,99.90
2023-05-03T01:24:38.597Z,99.90
2023-05-03T01:27:06.897Z,99.90
2023-05-03T01:29:34.437Z,99.90
2023-05-03T01:32:03.383Z,99.90
2023-05-03T01:34:51.689Z,99.90
2023-05-03T01:37:19.835Z,99.90
2023-05-03T01:39:57.004Z,99.90
2023-05-03T01:42:24.567Z,99.90
2023-05-03T01:44:52.119Z,99.90
2023-05-03T01:47:19.639Z,99.90
2023-05-03T01:49:47.507Z,99.90
2023-05-03T01:52:15.759Z,99.90
2023-05-03T01:54:43.204Z,99.90
2023-05-03T01:57:11.535Z,99.90
2023-05-03T01:59:39.064Z,99.90
2023-05-03T02:02:06.615Z,99.90
2023-05-03T02:04:35.002Z,99.90
2023-05-03T02:07:02.508Z,99.90
2023-05-03T02:09:30.048Z,99.90
2023-05-03T02:11:57.692Z,99.90
2023-05-03T02:14:25.222Z,99.90
2023-05-03T02:16:53.552Z,99.90
2023-05-03T02:19:21.109Z,99.90
2023-05-03T02:21:48.636Z,99.90
2023-05-03T02:24:16.171Z,99.90
2023-05-03T02:26:45.289Z,99.90
2023-05-03T02:29:12.818Z,99.90
2023-05-03T02:31:41.130Z,99.90
2023-05-03T02:34:09.720Z,99.90
2023-05-03T02:36:37.245Z,99.90
2023-05-03T02:39:05.548Z,99.90
2023-05-03T02:41:33.128Z,99.90
2023-05-03T02:44:00.671Z,99.90
2023-05-03T02:46:28.261Z,99.90
2023-05-03T02:48:56.903Z,99.90
2023-05-03T02:51:24.431Z,99.90
2023-05-03T02:53:52.813Z,99.90
2023-05-03T02:56:21.144Z,99.90
2023-05-03T02:58:48.680Z,99.90
2023-05-03T03:01:16.257Z,99.90
2023-05-03T03:03:43.909Z,99.90
2023-05-03T03:06:12.211Z,99.90
2023-05-03T03:08:39.696Z,99.90
2023-05-03T03:11:07.269Z,99.90
2023-05-03T03:13:34.805Z,99.90
2023-05-03T03:16:02.390Z,99.90
2023-05-03T03:18:29.936Z,99.90
2023-05-03T03:20:57.460Z,99.90
2023-05-03T03:23:24.976Z,99.90
2023-05-03T03:25:53.061Z,99.90
2023-05-03T03:28:20.590Z,99.90
2023-05-03T03:30:48.892Z,99.90
2023-05-03T03:33:16.518Z,99.90
2023-05-03T03:35:43.987Z,99.90
2023-05-03T03:38:12.315Z,99.90
2023-05-03T03:40:40.168Z,99.90
2023-05-03T03:43:07.697Z,99.90
2023-05-03T03:45:36.106Z,99.90
2023-05-03T03:48:03.770Z,99.90
2023-05-03T03:50:31.234Z,99.90
2023-05-03T03:52:58.762Z,99.90
2023-05-03T03:55:26.336Z,99.90
2023-05-03T03:57:53.872Z,99.90
2023-05-03T04:00:21.400Z,99.90
2023-05-03T04:02:49.075Z,99.90
2023-05-03T04:05:16.521Z,99.90
2023-05-03T04:07:44.040Z,99.90
2023-05-03T04:10:11.634Z,99.90
2023-05-03T04:12:39.174Z,99.90
2023-05-03T04:15:06.837Z,99.90
2023-05-03T04:17:34.501Z,99.90
2023-05-03T04:20:05.247Z,99.90
2023-05-03T04:22:32.562Z,99.90
2023-05-03T04:25:02.961Z,99.90
2023-05-03T04:27:30.456Z,99.90
2023-05-03T04:29:57.997Z,99.90
2023-05-03T04:32:26.608Z,99.90
2023-05-03T04:34:54.130Z,99.90
2023-05-03T04:37:23.350Z,99.90
2023-05-03T04:39:50.819Z,99.90
2023-05-03T04:42:18.365Z,99.90
2023-05-03T04:44:45.918Z,99.90
2023-05-03T04:47:14.242Z,99.90
2023-05-03T04:49:41.755Z,99.90
2023-05-03T04:52:09.282Z,99.90
2023-05-03T04:54:37.617Z,99.90
2023-05-03T04:57:05.178Z,99.90
2023-05-03T04:59:32.705Z,99.90
2023-05-03T05:02:00.440Z,99.90
2023-05-03T05:04:27.825Z,99.90
2023-05-03T05:06:55.384Z,99.90
2023-05-03T05:09:23.706Z,99.90
2023-05-03T05:11:51.231Z,99.90
2023-05-03T05:14:18.785Z,99.90
2023-05-03T05:16:46.486Z,99.90
2023-05-03T05:19:13.897Z,99.90
2023-05-03T05:21:41.463Z,99.90
2023-05-03T05:24:09.040Z,99.90
2023-05-03T05:26:36.578Z,99.90
2023-05-03T05:29:05.177Z,99.90
2023-05-03T05:31:31.710Z,99.90
2023-05-03T05:33:59.206Z,99.90
2023-05-03T05:36:26.769Z,99.90
2023-05-03T05:38:54.319Z,99.90
2023-05-03T05:41:21.858Z,99.90
2023-05-03T05:43:49.392Z,99.90
2023-05-03T05:46:17.856Z,99.90
2023-05-03T05:48:45.290Z,99.90
2023-05-03T05:51:13.582Z,99.90
2023-05-03T05:53:41.942Z,99.90
2023-05-03T05:56:10.240Z,99.90
2023-05-03T05:58:38.588Z,99.90
2023-05-03T06:01:06.111Z,99.90
2023-05-03T06:03:33.639Z,99.90
2023-05-03T06:06:01.216Z,99.90
2023-05-03T06:08:29.539Z,99.90
2023-05-03T06:10:57.051Z,99.90
2023-05-03T06:13:24.586Z,99.90
2023-05-03T06:15:52.150Z,99.90
2023-05-03T06:18:19.749Z,99.90
2023-05-03T06:20:51.028Z,99.90
2023-05-03T06:23:18.575Z,99.90
2023-05-03T06:25:49.095Z,99.90
2023-05-03T06:28:16.623Z,99.90
2023-05-03T06:30:44.247Z,99.90
2023-05-03T06:33:11.759Z,99.90
2023-05-03T06:35:39.267Z,99.90
2023-05-03T06:38:07.614Z,99.90
2023-05-03T06:40:35.983Z,99.90
2023-05-03T06:43:02.649Z,99.90
2023-05-03T06:45:31.377Z,99.90
2023-05-03T06:47:59.055Z,99.90
2023-05-03T06:50:26.464Z,99.90
2023-05-03T06:52:54.805Z,99.90
2023-05-03T06:55:22.340Z,99.90
2023-05-03T06:57:49.868Z,99.90
2023-05-03T07:00:18.253Z,99.90
2023-05-03T07:02:45.849Z,99.90
2023-05-03T07:05:14.119Z,99.90
2023-05-03T07:07:41.685Z,99.90
2023-05-03T07:10:09.260Z,99.90
2023-05-03T07:12:36.829Z,99.90
2023-05-03T07:15:04.454Z,99.90
2023-05-03T07:17:32.021Z,99.90
2023-05-03T07:19:59.511Z,99.90
2023-05-03T07:22:27.843Z,99.90
2023-05-03T07:24:55.380Z,99.90
2023-05-03T07:27:22.919Z,99.90
2023-05-03T07:29:50.486Z,99.90
2023-05-03T07:32:18.805Z,99.90
2023-05-03T07:34:46.325Z,99.90
2023-05-03T07:37:14.160Z,99.90
2023-05-03T07:39:41.680Z,99.90
2023-05-03T07:42:09.244Z,99.90
2023-05-03T07:44:36.807Z,99.90
2023-05-03T07:47:04.367Z,99.90
2023-05-03T07:49:31.894Z,99.90
2023-05-03T07:51:59.458Z,99.90
2023-05-03T07:54:27.023Z,99.90
2023-05-03T07:56:55.719Z,99.90
2023-05-03T07:59:22.902Z,99.90
2023-05-03T08:01:50.425Z,99.90
2023-05-03T08:04:18.308Z,99.90
2023-05-03T08:06:45.645Z,99.90
2023-05-03T08:09:13.097Z,99.50
2023-05-03T08:11:43.215Z,98.70
2023-05-03T08:14:08.225Z,97.00
2023-05-03T08:16:35.775Z,95.90
2023-05-03T08:19:03.311Z,95.70
2023-05-03T08:21:31.229Z,95.60
2023-05-03T08:23:58.742Z,95.70
2023-05-03T08:26:26.308Z,95.30
2023-05-03T08:28:53.839Z,94.50
2023-05-03T08:31:22.133Z,93.30
2023-05-03T08:33:49.672Z,93.30
2023-05-03T08:36:18.280Z,92.50
2023-05-03T08:38:45.814Z,92.40
2023-05-03T08:41:21.903Z,92.10
2023-05-03T08:43:49.501Z,92.10
2023-05-03T08:46:17.054Z,91.60
2023-05-03T08:48:44.545Z,91.50
2023-05-03T08:51:13.165Z,90.10
2023-05-03T08:53:40.698Z,90.10
2023-05-03T08:56:09.004Z,89.80
2023-05-03T08:58:36.578Z,89.80
2023-05-03T09:01:06.902Z,89.00
2023-05-03T09:03:34.540Z,87.90
2023-05-03T09:06:04.732Z,88.00
2023-05-03T09:08:32.264Z,88.20
2023-05-03T09:10:59.819Z,87.10
2023-05-03T09:13:30.259Z,84.50
2023-05-03T09:15:58.105Z,83.10
2023-05-03T09:18:26.329Z,83.20
2023-05-03T09:20:54.728Z,83.10
2023-05-03T09:23:28.404Z,82.90
2023-05-03T09:25:56.707Z,82.40
2023-05-03T09:28:24.278Z,82.40
2023-05-03T09:30:51.817Z,82.30
2023-05-03T09:33:21.908Z,81.10
2023-05-03T09:35:58.630Z,80.80
2023-05-03T09:38:28.993Z,79.60
2023-05-03T09:40:56.573Z,79.70
2023-05-03T09:43:24.075Z,78.70
2023-05-03T09:45:51.675Z,77.50
2023-05-03T09:48:19.206Z,76.30
2023-05-03T09:50:46.741Z,76.20
2023-05-03T09:53:14.272Z,76.30
2023-05-03T09:55:42.583Z,74.70
2023-05-03T09:58:10.157Z,74.20
2023-05-03T10:00:40.665Z,73.20
2023-05-03T10:03:10.873Z,72.20
2023-05-03T10:05:44.146Z,72.50
2023-05-03T10:08:12.453Z,71.10
2023-05-03T10:10:39.994Z,71.10
2023-05-03T10:13:10.241Z,67.70
2023-05-03T10:15:35.871Z,67.70
2023-05-03T10:18:03.406Z,67.30
2023-05-03T10:20:34.408Z,65.70
2023-05-03T10:23:04.957Z,65.70
2023-05-03T10:25:32.418Z,65.30
2023-05-03T10:28:08.602Z,65.60
2023-05-03T10:30:36.126Z,66.00
2023-05-03T10:33:10.670Z,65.00
2023-05-03T10:35:38.249Z,65.00
2023-05-03T10:38:17.381Z,64.10
2023-05-03T10:40:45.702Z,63.80
2023-05-03T10:43:31.966Z,63.80
2023-05-03T10:46:02.231Z,63.00
2023-05-03T10:48:29.712Z,63.30
2023-05-03T10:50:57.247Z,62.90
2023-05-03T10:53:34.488Z,62.60
2023-05-03T10:56:02.039Z,62.60
2023-05-03T10:58:29.556Z,62.30
2023-05-03T11:00:57.139Z,62.40
2023-05-03T11:03:27.410Z,62.00
2023-05-03T11:05:54.920Z,60.50
2023-05-03T11:08:22.476Z,60.90
2023-05-03T11:10:50.033Z,61.10
2023-05-03T11:13:17.596Z,59.70
2023-05-03T11:15:47.735Z,58.60
2023-05-03T11:18:14.317Z,58.20
2023-05-03T11:20:41.873Z,58.20
2023-05-03T11:23:10.242Z,57.20
2023-05-03T11:25:37.761Z,57.20
2023-05-03T11:28:05.301Z,56.30
2023-05-03T11:30:35.843Z,56.60
2023-05-03T11:33:03.409Z,56.70
2023-05-03T11:35:31.660Z,53.30
2023-05-03T11:37:59.247Z,53.20
2023-05-03T11:40:26.785Z,52.70
2023-05-03T11:42:56.973Z,51.90
2023-05-03T11:45:39.996Z,52.10
2023-05-03T11:48:07.551Z,52.00
2023-05-03T11:50:44.406Z,52.00
2023-05-03T11:53:12.021Z,52.40
2023-05-03T11:55:39.554Z,52.40
2023-05-03T11:58:07.855Z,50.60
2023-05-03T12:00:35.460Z,50.60
2023-05-03T12:03:03.176Z,51.00
2023-05-03T12:05:30.945Z,50.80
2023-05-03T12:07:59.243Z,50.20
2023-05-03T12:10:26.956Z,49.70
2023-05-03T12:12:57.587Z,50.20
2023-05-03T12:15:35.869Z,50.20
2023-05-03T12:18:04.156Z,50.20
2023-05-03T12:23:04.274Z,48.50
2023-05-03T12:25:33.794Z,47.90
2023-05-03T12:28:17.618Z,48.00
2023-05-03T12:30:28.592Z,48.70
2023-05-03T12:32:53.454Z,49.40
2023-05-03T12:35:22.308Z,49.10
2023-05-03T12:37:49.907Z,49.10
2023-05-03T12:40:32.686Z,49.20
2023-05-03T12:42:45.947Z,50.30
2023-05-03T12:45:14.474Z,50.20
2023-05-03T12:47:44.373Z,51.90
2023-05-03T12:50:12.366Z,51.50
2023-05-03T12:52:38.933Z,51.30
2023-05-03T12:55:10.375Z,51.60
2023-05-03T12:57:37.117Z,51.00
2023-05-03T13:00:03.211Z,50.60
2023-05-03T13:04:59.568Z,50.60
2023-05-03T13:07:28.368Z,51.00
2023-05-03T13:12:20.383Z,50.20
2023-05-03T13:14:47.720Z,50.10
2023-05-03T13:17:15.253Z,50.90
2023-05-03T13:19:42.793Z,50.70
2023-05-03T13:22:11.916Z,50.50
2023-05-03T13:24:39.831Z,50.50
2023-05-03T13:27:07.371Z,49.50
2023-05-03T13:29:35.521Z,49.20
2023-05-03T13:32:03.111Z,49.90
2023-05-03T13:34:30.601Z,50.20
2023-05-03T13:36:58.961Z,49.10
2023-05-03T13:39:26.503Z,49.10
2023-05-03T13:41:54.033Z,48.70
2023-05-03T13:44:22.603Z,48.90
2023-05-03T13:46:50.135Z,48.60
2023-05-03T13:49:18.450Z,48.40
2023-05-03T13:51:46.028Z,48.40
2023-05-03T13:54:13.554Z,48.10
2023-05-03T13:56:41.084Z,47.90
2023-05-03T13:59:08.642Z,48.30
2023-05-03T14:01:36.995Z,48.40
2023-05-03T14:04:04.555Z,48.40
2023-05-03T14:06:33.845Z,48.20
2023-05-03T14:09:00.348Z,48.20
2023-05-03T14:11:30.650Z,47.90
2023-05-03T14:13:58.884Z,48.20
2023-05-03T14:16:39.396Z,47.40
2023-05-03T14:18:53.240Z,47.50
2023-05-03T14:21:20.853Z,47.30
2023-05-03T14:23:48.351Z,46.90
2023-05-03T14:26:15.879Z,46.60
2023-05-03T14:28:43.452Z,46.80
2023-05-03T14:31:11.057Z,46.60
2023-05-03T14:33:38.540Z,46.30
2023-05-03T14:36:09.196Z,46.30
2023-05-03T14:38:36.652Z,45.60
2023-05-03T14:41:04.945Z,45.70
2023-05-03T14:43:32.576Z,45.40
2023-05-03T14:46:00.078Z,45.60
2023-05-03T14:48:28.379Z,45.20
2023-05-03T14:50:56.758Z,45.20
2023-05-03T14:53:24.276Z,44.60
2023-05-03T14:55:52.612Z,44.20
2023-05-03T14:58:20.156Z,44.20
2023-05-03T15:00:47.750Z,44.90
2023-05-03T15:03:15.217Z,44.60
2023-05-03T15:05:42.782Z,43.90
2023-05-03T15:08:11.100Z,44.60
2023-05-03T15:10:38.632Z,44.60
2023-05-03T15:13:06.423Z,44.30
2023-05-03T15:15:33.761Z,43.70
2023-05-03T15:18:01.402Z,43.90
2023-05-03T15:20:29.634Z,43.40
2023-05-03T15:22:57.139Z,43.40
2023-05-03T15:25:24.669Z,43.50
2023-05-03T15:27:52.282Z,43.60
2023-05-03T15:30:20.568Z,41.80
2023-05-03T15:32:48.121Z,41.80
2023-05-03T15:35:16.461Z,41.50
2023-05-03T15:37:43.976Z,41.40
2023-05-03T15:40:12.137Z,41.50
2023-05-03T15:42:39.727Z,41.20
2023-05-03T15:45:07.381Z,40.50
2023-05-03T15:47:34.924Z,40.70
2023-05-03T15:50:02.766Z,40.30
2023-05-03T15:52:30.034Z,39.70
2023-05-03T15:54:57.568Z,39.30
2023-05-03T15:57:25.898Z,39.40
2023-05-03T15:59:53.419Z,39.30
2023-05-03T16:02:20.963Z,39.20
2023-05-03T16:04:50.384Z,39.10
2023-05-03T16:07:16.835Z,39.10
2023-05-03T16:09:44.397Z,39.00
2023-05-03T16:12:12.026Z,39.20
2023-05-03T16:14:39.549Z,39.50
2023-05-03T16:17:07.077Z,38.80
2023-05-03T16:19:34.682Z,38.70
2023-05-03T16:22:02.969Z,38.90
2023-05-03T16:24:31.268Z,38.70
2023-05-03T16:26:58.830Z,38.70
2023-05-03T16:29:26.445Z,38.70
2023-05-03T16:31:54.034Z,39.00
2023-05-03T16:34:21.552Z,38.70
2023-05-03T16:36:49.085Z,38.60
2023-05-03T16:39:16.601Z,38.00
2023-05-03T16:41:44.166Z,37.80
2023-05-03T16:44:11.686Z,37.70
2023-05-03T16:46:39.218Z,37.70
2023-05-03T16:49:06.851Z,37.60
2023-05-03T16:51:35.124Z,37.60
2023-05-03T16:54:04.430Z,37.50
2023-05-03T16:56:31.770Z,37.50
2023-05-03T16:58:59.361Z,37.50
2023-05-03T17:01:26.855Z,37.70
2023-05-03T17:03:54.394Z,38.10
2023-05-03T17:06:21.929Z,38.60
2023-05-03T17:08:49.456Z,38.30
2023-05-03T17:11:17.807Z,37.90
2023-05-03T17:13:45.331Z,37.90
2023-05-03T17:16:12.927Z,38.30
2023-05-03T17:18:40.546Z,38.00
2023-05-03T17:21:08.000Z,37.90
2023-05-03T17:23:35.528Z,37.70
2023-05-03T17:26:03.119Z,37.70
2023-05-03T17:28:30.642Z,38.30
2023-05-03T17:30:58.942Z,38.40
2023-05-03T17:33:27.342Z,38.30
2023-05-03T17:35:54.859Z,38.50
2023-05-03T17:38:23.211Z,39.20
2023-05-03T17:40:50.827Z,39.20
2023-05-03T17:43:18.346Z,39.60
2023-05-03T17:45:46.633Z,40.80
2023-05-03T17:48:14.199Z,40.80
2023-05-03T17:50:41.746Z,41.50
2023-05-03T17:53:09.307Z,41.90
2023-05-03T17:55:37.096Z,42.40
2023-05-03T17:58:04.649Z,42.80
2023-05-03T18:00:32.181Z,43.20
2023-05-03T18:03:00.652Z,44.00
2023-05-03T18:05:28.083Z,44.00
2023-05-03T18:07:55.593Z,44.30
2023-05-03T18:10:23.452Z,44.70
2023-05-03T18:12:50.978Z,44.60
2023-05-03T18:15:18.466Z,44.70
2023-05-03T18:17:47.217Z,45.30
2023-05-03T18:20:14.720Z,45.20
2023-05-03T18:22:42.329Z,45.40
2023-05-03T18:25:10.648Z,45.80
2023-05-03T18:27:38.153Z,45.70
2023-05-03T18:30:06.083Z,45.40
2023-05-03T18:32:33.424Z,45.50
2023-05-03T18:35:00.963Z,45.60
2023-05-03T18:37:28.505Z,44.90
2023-05-03T18:39:56.102Z,43.70
2023-05-03T18:42:23.612Z,43.20
2023-05-03T18:44:51.166Z,42.80
2023-05-03T18:47:19.022Z,43.00
2023-05-03T18:49:48.789Z,43.10
2023-05-03T18:52:17.095Z,43.10
2023-05-03T18:54:44.683Z,43.60
2023-05-03T18:57:12.209Z,42.80
2023-05-03T18:59:48.731Z,43.00
2023-05-03T19:02:08.094Z,42.70
2023-05-03T19:04:35.732Z,42.40
2023-05-03T19:07:03.155Z,42.60
2023-05-03T19:09:30.743Z,42.90
2023-05-03T19:11:58.282Z,42.90
2023-05-03T19:14:26.566Z,42.50
2023-05-03T19:16:54.128Z,42.40
2023-05-03T19:19:21.664Z,42.10
2023-05-03T19:21:49.186Z,41.70
2023-05-03T19:24:16.803Z,41.60
2023-05-03T19:26:44.327Z,41.60
2023-05-03T19:29:11.837Z,41.10
2023-05-03T19:31:39.433Z,41.10
2023-05-03T19:34:07.000Z,41.40
2023-05-03T19:36:34.552Z,41.60
2023-05-03T19:39:02.389Z,41.80
2023-05-03T19:41:29.915Z,42.10
2023-05-03T19:43:57.448Z,41.60
2023-05-03T19:46:25.817Z,41.70
2023-05-03T19:48:53.325Z,41.60
2023-05-03T19:51:20.894Z,41.50
2023-05-03T19:53:49.261Z,42.30
2023-05-03T19:56:16.710Z,42.80
2023-05-03T19:58:44.230Z,43.10
2023-05-03T20:01:12.178Z,43.50
2023-05-03T20:03:39.820Z,43.80
2023-05-03T20:06:08.004Z,43.90
2023-05-03T20:08:35.565Z,43.90
2023-05-03T20:11:03.129Z,43.90
2023-05-03T20:13:30.663Z,43.90
2023-05-03T20:15:58.295Z,43.90
2023-05-03T20:18:25.798Z,43.60
2023-05-03T20:20:53.376Z,43.30
2023-05-03T20:23:20.925Z,43.60
2023-05-03T20:25:48.455Z,43.70
2023-05-03T20:28:15.989Z,43.90
2023-05-03T20:30:43.651Z,44.20
2023-05-03T20:33:11.204Z,44.60
2023-05-03T20:35:38.923Z,45.10
2023-05-03T20:38:06.504Z,45.70
2023-05-03T20:40:34.032Z,45.70
2023-05-03T20:43:01.572Z,45.40
2023-05-03T20:45:29.197Z,45.40
2023-05-03T20:47:56.704Z,45.70
2023-05-03T20:50:24.223Z,46.00
2023-05-03T20:52:52.586Z,47.80
2023-05-03T20:55:20.100Z,47.80
2023-05-03T20:57:47.648Z,50.10
2023-05-03T21:00:16.277Z,50.90
2023-05-03T21:02:43.961Z,50.80
2023-05-03T21:05:11.445Z,50.70
2023-05-03T21:07:39.664Z,51.00
2023-05-03T21:10:07.931Z,50.90
2023-05-03T21:12:34.970Z,51.10
2023-05-03T21:15:03.257Z,51.50
2023-05-03T21:17:30.818Z,51.40
2023-05-03T21:19:58.329Z,51.90
2023-05-03T21:22:26.721Z,51.30
2023-05-03T21:24:54.236Z,51.10
2023-05-03T21:27:22.535Z,51.40
2023-05-03T21:29:50.112Z,51.40
2023-05-03T21:32:17.638Z,51.40
2023-05-03T21:34:45.958Z,52.30
2023-05-03T21:37:14.314Z,52.30
2023-05-03T21:39:45.260Z,52.40
2023-05-03T21:42:09.396Z,52.40
2023-05-03T21:44:38.724Z,53.00
2023-05-03T21:47:06.260Z,52.80
2023-05-03T21:49:33.797Z,53.20
2023-05-03T21:52:01.922Z,53.50
2023-05-03T21:54:29.457Z,53.80
2023-05-03T21:56:57.770Z,54.60
2023-05-03T21:59:25.334Z,54.60
2023-05-03T22:01:52.958Z,55.30
2023-05-03T22:04:20.412Z,55.70
2023-05-03T22:06:48.007Z,56.20
2023-05-03T22:09:15.603Z,56.70
2023-05-03T22:11:43.134Z,56.80
2023-05-03T22:14:10.713Z,56.70
2023-05-03T22:16:38.392Z,56.30
2023-05-03T22:19:06.747Z,56.10
2023-05-03T22:21:34.156Z,56.20
2023-05-03T22:24:01.700Z,56.40
2023-05-03T22:26:30.013Z,56.90
2023-05-03T22:28:57.606Z,56.90
2023-05-03T22:31:25.208Z,57.20
2023-05-03T22:33:52.748Z,57.80
2023-05-03T22:36:21.162Z,59.80
2023-05-03T22:38:48.901Z,59.80
2023-05-03T22:41:17.212Z,62.10
2023-05-03T22:43:44.816Z,62.00
2023-05-03T22:46:12.413Z,63.10
2023-05-03T22:48:39.909Z,64.10
2023-05-03T22:51:07.481Z,64.80
2023-05-03T22:53:35.014Z,65.40
2023-05-03T22:56:02.562Z,65.80
2023-05-03T22:58:30.133Z,66.20
2023-05-03T23:00:57.735Z,66.50
2023-05-03T23:03:25.335Z,66.60
2023-05-03T23:05:53.136Z,67.10
2023-05-03T23:08:20.661Z,67.40
2023-05-03T23:10:48.192Z,68.00
2023-05-03T23:13:16.679Z,67.70
2023-05-03T23:15:44.089Z,67.70
2023-05-03T23:18:11.593Z,68.20
2023-05-03T23:20:39.479Z,68.60
2023-05-03T23:23:07.007Z,69.20
2023-05-03T23:25:35.302Z,70.50
2023-05-03T23:28:02.877Z,70.00
2023-05-03T23:30:30.401Z,70.20
2023-05-03T23:32:58.769Z,71.10
2023-05-03T23:35:27.038Z,72.00
2023-05-03T23:37:54.609Z,71.90
2023-05-03T23:40:22.103Z,71.60
2023-05-03T23:42:49.758Z,72.80
2023-05-03T23:45:17.289Z,72.10
2023-05-03T23:47:44.881Z,72.30
2023-05-03T23:50:12.419Z,72.70
2023-05-03T23:52:40.704Z,74.10
2023-05-03T23:55:08.328Z,74.10
2023-05-03T23:57:36.449Z,73.40
